Buel, New York
Current Conditions -  °F | °C
As of 7:15 AM on Sunday 23 Nov 2014 (Local Time) from KNY0 Reporting Station
Overcast Overcast  
Wind Chill: 35°   Ceiling: 2400
Heat Index: 35°   Visibility: 5mi
Dew Point: 33°   Wind: 3mph
Humidity: 94%   Direction: 150°SSE
Pressure: 30.07"   Gusts: NA
Location:  42.8548°N, 74.5942°W
Report Text: KNY0 231215Z AUTO 15003KT 5SM OVC024 02/01 A3007 RMK AO2 T00150007
Loading
Personal Weather Stations






























Interactive Weather Map New forecast layout! Learn more

10-Day Weather Forecast

Advertisements
Track Severe Weather on mobile